createdAt,value
2023-02-06T00:01:50.285Z,17.43
2023-02-06T00:04:22.156Z,16.43
2023-02-06T00:06:52.060Z,16.37
2023-02-06T00:09:20.446Z,16.70
2023-02-06T00:11:51.669Z,17.13
2023-02-06T00:14:19.976Z,15.63
2023-02-06T00:17:08.070Z,16.17
2023-02-06T00:19:39.152Z,17.13
2023-02-06T00:22:10.732Z,16.60
2023-02-06T00:24:38.785Z,19.33
2023-02-06T00:27:08.121Z,15.57
2023-02-06T00:29:36.289Z,20.30
2023-02-06T00:32:04.550Z,17.47
2023-02-06T00:34:32.769Z,19.00
2023-02-06T00:37:01.075Z,15.67
2023-02-06T00:39:29.486Z,18.03
2023-02-06T00:41:57.645Z,19.60
2023-02-06T00:44:25.773Z,21.20
2023-02-06T00:46:54.170Z,17.57
2023-02-06T00:49:23.155Z,19.73
2023-02-06T00:51:51.711Z,19.27
2023-02-06T00:54:21.242Z,15.73
2023-02-06T00:56:49.183Z,19.13
2023-02-06T00:59:22.796Z,18.63
2023-02-06T01:01:51.098Z,16.30
2023-02-06T01:04:19.425Z,18.30
2023-02-06T01:07:03.184Z,19.17
2023-02-06T01:09:31.831Z,19.37
2023-02-06T01:12:02.175Z,18.07
2023-02-06T01:14:30.280Z,17.23
2023-02-06T01:16:58.703Z,19.67
2023-02-06T01:19:27.236Z,16.33
2023-02-06T01:22:01.109Z,17.67
2023-02-06T01:24:29.707Z,14.20
2023-02-06T01:26:59.507Z,17.17
2023-02-06T01:29:27.626Z,16.07
2023-02-06T01:31:55.882Z,15.23
2023-02-06T01:34:24.699Z,18.13
2023-02-06T01:36:55.896Z,17.67
2023-02-06T01:39:24.374Z,17.67
2023-02-06T01:41:52.551Z,17.57
2023-02-06T01:44:25.400Z,19.23
2023-02-06T01:46:56.307Z,22.40
2023-02-06T01:49:45.554Z,20.37
2023-02-06T01:52:18.341Z,16.27
2023-02-06T01:54:51.457Z,18.23
2023-02-06T01:57:20.917Z,20.90
2023-02-06T01:59:53.145Z,20.20
2023-02-06T02:02:23.364Z,19.03
2023-02-06T02:04:51.499Z,19.20
2023-02-06T02:07:26.198Z,18.37
2023-02-06T02:09:56.798Z,22.93
2023-02-06T02:12:24.764Z,18.00
2023-02-06T02:14:55.832Z,23.40
2023-02-06T02:17:28.628Z,18.83
2023-02-06T02:20:25.180Z,19.73
2023-02-06T02:23:14.910Z,25.87
2023-02-06T02:26:03.696Z,22.00
2023-02-06T02:28:40.960Z,23.73
2023-02-06T02:31:29.115Z,23.87
2023-02-06T02:34:09.460Z,26.33
2023-02-06T02:36:49.191Z,24.13
2023-02-06T02:39:38.308Z,21.33
2023-02-06T02:42:19.021Z,24.40
2023-02-06T02:44:55.161Z,25.17
2023-02-06T02:47:32.970Z,21.43
2023-02-06T02:50:03.117Z,21.20
2023-02-06T02:52:31.250Z,21.17
2023-02-06T02:54:59.252Z,22.23
2023-02-06T02:57:33.618Z,25.70
2023-02-06T03:00:01.973Z,28.80
2023-02-06T03:02:35.021Z,24.43
2023-02-06T03:05:06.246Z,28.00
2023-02-06T03:07:54.184Z,21.13
2023-02-06T03:10:28.789Z,26.07
2023-02-06T03:13:37.282Z,25.73
2023-02-06T03:16:19.018Z,23.87
2023-02-06T03:19:09.141Z,23.97
2023-02-06T03:21:40.477Z,20.37
2023-02-06T03:24:15.188Z,29.10
2023-02-06T03:26:44.245Z,20.53
2023-02-06T03:29:14.664Z,21.93
2023-02-06T03:31:54.774Z,22.73
2023-02-06T03:34:32.228Z,22.60
2023-02-06T03:37:00.934Z,24.40
2023-02-06T03:39:29.555Z,28.37
2023-02-06T03:42:00.319Z,27.33
2023-02-06T03:44:33.906Z,24.20
2023-02-06T03:47:03.276Z,22.30
2023-02-06T03:49:32.903Z,25.60
2023-02-06T03:52:07.585Z,26.57
2023-02-06T03:54:39.837Z,28.50
2023-02-06T03:57:11.400Z,21.97
2023-02-06T03:59:39.645Z,22.03
2023-02-06T04:02:07.975Z,22.40
2023-02-06T04:04:39.158Z,23.40
2023-02-06T04:07:18.472Z,26.03
2023-02-06T04:09:46.611Z,22.87
2023-02-06T04:12:17.888Z,23.13
2023-02-06T04:14:47.182Z,23.00
2023-02-06T04:17:31.335Z,19.03
2023-02-06T04:20:06.650Z,26.30
2023-02-06T04:22:35.246Z,20.87
2023-02-06T04:25:03.444Z,26.87
2023-02-06T04:27:32.021Z,24.60
2023-02-06T04:30:02.054Z,20.83
2023-02-06T04:32:30.582Z,24.47
2023-02-06T04:34:58.616Z,20.90
2023-02-06T04:37:26.799Z,20.47
2023-02-06T04:39:55.436Z,31.60
2023-02-06T04:42:23.828Z,27.67
2023-02-06T04:44:51.884Z,28.53
2023-02-06T04:47:20.388Z,29.53
2023-02-06T04:49:48.394Z,26.53
2023-02-06T04:52:16.345Z,27.70
2023-02-06T04:54:44.335Z,29.53
2023-02-06T04:57:12.871Z,27.80
2023-02-06T04:59:41.980Z,26.40
2023-02-06T05:02:11.396Z,32.17
2023-02-06T05:04:39.531Z,32.43
2023-02-06T05:07:07.582Z,29.27
2023-02-06T05:09:35.821Z,30.53
2023-02-06T05:12:06.030Z,29.20
2023-02-06T05:14:34.457Z,29.87
2023-02-06T05:17:05.329Z,28.70
2023-02-06T05:19:33.375Z,35.80
2023-02-06T05:22:01.246Z,32.07
2023-02-06T05:24:29.607Z,25.80
2023-02-06T05:26:58.801Z,30.73
2023-02-06T05:29:27.130Z,33.37
2023-02-06T05:31:56.302Z,34.23
2023-02-06T05:34:24.726Z,24.77
2023-02-06T05:36:52.955Z,30.50
2023-02-06T05:39:21.583Z,31.17
2023-02-06T05:41:49.697Z,34.23
2023-02-06T05:44:17.772Z,35.30
2023-02-06T05:46:48.854Z,33.93
2023-02-06T05:49:17.670Z,32.53
2023-02-06T05:51:45.739Z,33.67
2023-02-06T05:54:15.672Z,41.60
2023-02-06T05:56:44.775Z,36.23
2023-02-06T05:59:13.001Z,40.63
2023-02-06T06:01:41.090Z,40.97
2023-02-06T06:04:10.342Z,34.33
2023-02-06T06:06:38.887Z,36.73
2023-02-06T06:09:07.292Z,36.83
2023-02-06T06:11:35.225Z,35.93
2023-02-06T06:14:03.591Z,30.67
2023-02-06T06:16:35.651Z,31.13
2023-02-06T06:19:05.107Z,35.40
2023-02-06T06:21:34.263Z,30.50
2023-02-06T06:24:03.289Z,30.07
2023-02-06T06:26:32.032Z,27.73
2023-02-06T06:29:00.232Z,25.13
2023-02-06T06:31:30.391Z,25.37
2023-02-06T06:33:58.789Z,26.40
2023-02-06T06:36:26.932Z,25.80
2023-02-06T06:38:55.922Z,25.83
2023-02-06T06:41:23.920Z,27.53
2023-02-06T06:43:52.004Z,25.03
2023-02-06T06:46:20.036Z,26.23
2023-02-06T06:48:47.909Z,25.03
2023-02-06T06:51:16.154Z,27.50
2023-02-06T06:53:44.477Z,28.73
2023-02-06T06:56:14.182Z,27.90
2023-02-06T06:58:43.016Z,24.23
2023-02-06T07:01:11.367Z,23.70
2023-02-06T07:03:39.954Z,22.77
2023-02-06T07:06:07.993Z,17.73
2023-02-06T07:08:42.160Z,20.37
2023-02-06T07:11:15.168Z,18.70
2023-02-06T07:13:44.725Z,25.97
2023-02-06T07:16:17.473Z,24.30
2023-02-06T07:18:46.181Z,22.37
2023-02-06T07:21:16.269Z,21.10
2023-02-06T07:23:45.054Z,22.00
2023-02-06T07:26:13.316Z,19.10
2023-02-06T07:28:45.551Z,20.17
2023-02-06T07:31:14.334Z,23.07
2023-02-06T07:33:42.960Z,21.30
2023-02-06T07:36:12.920Z,21.30
2023-02-06T07:38:41.768Z,21.07
2023-02-06T07:41:12.447Z,22.97
2023-02-06T07:43:41.054Z,20.23
2023-02-06T07:46:09.217Z,20.33
2023-02-06T07:48:37.596Z,20.90
2023-02-06T07:51:07.463Z,21.40
2023-02-06T07:53:35.921Z,21.10
2023-02-06T07:56:11.314Z,20.20
2023-02-06T07:58:39.903Z,21.07
2023-02-06T08:01:08.265Z,16.97
2023-02-06T08:03:37.173Z,18.80
2023-02-06T08:06:10.137Z,17.80
2023-02-06T08:08:38.611Z,15.53
2023-02-06T08:11:14.112Z,16.83
2023-02-06T08:13:43.666Z,16.13
2023-02-06T08:16:16.187Z,16.87
2023-02-06T08:18:45.595Z,15.50
2023-02-06T08:21:19.380Z,14.90
2023-02-06T08:23:48.295Z,14.13
2023-02-06T08:26:18.460Z,12.70
2023-02-06T08:28:49.946Z,12.83
2023-02-06T08:31:44.373Z,12.63
2023-02-06T08:34:18.033Z,14.13
2023-02-06T08:36:46.428Z,9.60
2023-02-06T08:39:15.608Z,9.10
2023-02-06T08:41:45.078Z,8.70
2023-02-06T08:44:16.534Z,9.10
2023-02-06T08:46:46.200Z,12.13
2023-02-06T08:49:28.075Z,13.43
2023-02-06T08:51:56.306Z,9.23
2023-02-06T08:54:24.649Z,7.93
2023-02-06T08:56:53.092Z,10.07
2023-02-06T08:59:21.569Z,7.30
2023-02-06T09:01:50.234Z,10.00
2023-02-06T09:04:20.237Z,7.57
2023-02-06T09:06:49.855Z,10.63
2023-02-06T09:09:22.173Z,12.07
2023-02-06T09:11:50.399Z,10.83
2023-02-06T09:14:18.919Z,7.30
2023-02-06T09:16:50.182Z,11.10
2023-02-06T09:19:18.514Z,12.47
2023-02-06T09:21:51.592Z,9.93
2023-02-06T09:24:20.971Z,11.00
2023-02-06T09:26:59.771Z,11.97
2023-02-06T09:29:29.951Z,11.13
2023-02-06T09:32:05.821Z,14.50
2023-02-06T09:34:37.298Z,16.70
2023-02-06T09:37:08.243Z,18.03
2023-02-06T09:39:37.626Z,15.93
2023-02-06T09:42:13.021Z,17.47
2023-02-06T09:44:48.498Z,16.73
2023-02-06T09:47:39.982Z,16.87
2023-02-06T09:50:24.911Z,21.40
2023-02-06T09:53:09.974Z,15.77
2023-02-06T09:55:48.326Z,15.67
2023-02-06T09:58:43.573Z,14.83
2023-02-06T10:01:25.390Z,16.07
2023-02-06T10:03:59.084Z,18.17
2023-02-06T10:06:52.091Z,16.10
2023-02-06T10:09:41.074Z,16.67
2023-02-06T10:12:23.804Z,16.93
2023-02-06T10:14:56.422Z,16.80
2023-02-06T10:17:37.525Z,15.77
2023-02-06T10:20:20.048Z,14.63
2023-02-06T10:22:52.473Z,15.17
2023-02-06T10:25:38.557Z,17.20
2023-02-06T10:28:28.330Z,14.80
2023-02-06T10:31:18.977Z,14.80
2023-02-06T10:34:06.120Z,14.73
2023-02-06T10:37:09.752Z,15.03
2023-02-06T10:40:02.463Z,16.57
2023-02-06T10:42:58.406Z,13.40
2023-02-06T10:45:54.548Z,17.42
2023-02-06T10:48:46.624Z,16.37
2023-02-06T10:51:42.950Z,13.20
2023-02-06T10:54:25.556Z,10.93
2023-02-06T10:56:57.999Z,10.63
2023-02-06T10:59:35.636Z,13.57
2023-02-06T11:02:41.815Z,16.47
2023-02-06T11:05:31.405Z,14.43
2023-02-06T11:08:11.031Z,11.63
2023-02-06T11:10:40.101Z,12.30
2023-02-06T11:13:22.348Z,11.50
2023-02-06T11:16:08.055Z,11.17
2023-02-06T11:18:45.788Z,9.63
2023-02-06T11:21:15.762Z,9.53
2023-02-06T11:23:44.256Z,11.67
2023-02-06T11:26:22.068Z,10.53
2023-02-06T11:28:57.569Z,10.10
2023-02-06T11:31:50.032Z,9.70
2023-02-06T11:34:26.131Z,8.83
2023-02-06T11:37:35.951Z,8.97
2023-02-06T11:40:19.580Z,9.47
2023-02-06T11:43:22.784Z,11.27
2023-02-06T11:46:13.291Z,10.60
2023-02-06T11:48:44.860Z,12.87
2023-02-06T11:51:18.491Z,11.03
2023-02-06T11:54:01.350Z,9.90
2023-02-06T11:56:32.748Z,12.77
2023-02-06T11:59:14.194Z,10.37
2023-02-06T12:01:45.628Z,9.33
2023-02-06T12:04:27.234Z,9.90
2023-02-06T12:07:02.112Z,10.17
2023-02-06T12:09:30.823Z,10.00
2023-02-06T12:12:23.609Z,9.50
2023-02-06T12:15:18.203Z,9.33
2023-02-06T12:17:57.381Z,11.20
2023-02-06T12:20:30.822Z,11.77
2023-02-06T12:23:16.962Z,13.67
2023-02-06T12:25:54.261Z,14.70
2023-02-06T12:28:29.269Z,9.97
2023-02-06T12:31:24.071Z,11.93
2023-02-06T12:34:02.108Z,14.60
2023-02-06T12:36:48.120Z,13.57
2023-02-06T12:39:20.507Z,13.23
2023-02-06T12:42:32.408Z,13.33
2023-02-06T12:45:33.103Z,11.17
2023-02-06T12:48:21.635Z,11.67
2023-02-06T12:51:26.392Z,14.33
2023-02-06T12:54:11.893Z,14.73
2023-02-06T12:57:03.427Z,16.92
2023-02-06T12:59:58.347Z,16.63
2023-02-06T13:02:46.297Z,16.90
2023-02-06T13:05:25.495Z,16.33
2023-02-06T13:07:56.722Z,17.47
2023-02-06T13:10:26.265Z,17.13
2023-02-06T13:12:56.042Z,20.90
2023-02-06T13:15:26.672Z,21.87
2023-02-06T13:17:56.222Z,20.53
2023-02-06T13:20:26.473Z,21.60
2023-02-06T13:23:12.759Z,21.63
2023-02-06T13:25:41.341Z,20.63
2023-02-06T13:28:23.824Z,24.63
2023-02-06T13:31:04.032Z,20.97
2023-02-06T13:33:45.482Z,24.40
2023-02-06T13:36:25.993Z,21.70
2023-02-06T13:39:14.788Z,21.83
2023-02-06T13:41:46.243Z,19.13
2023-02-06T13:44:34.575Z,20.67
2023-02-06T13:47:20.319Z,14.53
2023-02-06T13:50:20.774Z,19.17
2023-02-06T13:52:48.694Z,17.83
2023-02-06T13:55:30.183Z,17.77
2023-02-06T13:58:22.674Z,18.77
2023-02-06T14:00:52.179Z,18.23
2023-02-06T14:03:26.938Z,19.70
2023-02-06T14:06:10.233Z,19.60
2023-02-06T14:08:57.005Z,17.83
2023-02-06T14:12:09.708Z,23.43
2023-02-06T14:14:44.360Z,21.37
2023-02-06T14:17:58.996Z,14.73
2023-02-06T14:20:55.055Z,15.27
2023-02-06T14:23:45.587Z,18.97
2023-02-06T14:26:16.357Z,16.17
2023-02-06T14:29:04.145Z,17.40
2023-02-06T14:31:46.328Z,13.57
2023-02-06T14:34:48.366Z,10.77
2023-02-06T14:37:33.089Z,13.30
2023-02-06T14:40:05.031Z,13.93
2023-02-06T14:42:40.467Z,12.13
2023-02-06T14:45:36.145Z,13.33
2023-02-06T14:48:54.464Z,12.50
2023-02-06T14:54:47.277Z,11.63
2023-02-06T14:57:29.908Z,13.50
2023-02-06T15:00:05.508Z,14.57
2023-02-06T15:02:38.491Z,12.00
2023-02-06T15:05:08.809Z,13.93
2023-02-06T15:07:40.132Z,13.80
2023-02-06T15:10:16.110Z,13.77
2023-02-06T15:12:52.731Z,15.90
2023-02-06T15:15:27.275Z,14.57
2023-02-06T15:18:06.822Z,14.73
2023-02-06T15:20:37.427Z,16.10
2023-02-06T15:23:32.177Z,16.90
2023-02-06T15:26:14.542Z,14.13
2023-02-06T15:28:43.863Z,17.87
2023-02-06T15:31:22.575Z,16.93
2023-02-06T15:33:53.877Z,14.23
2023-02-06T15:36:42.264Z,13.23
2023-02-06T15:39:13.283Z,13.93
2023-02-06T15:41:46.219Z,14.07
2023-02-06T15:44:40.674Z,14.77
2023-02-06T15:47:13.849Z,13.13
2023-02-06T15:49:45.093Z,12.63
2023-02-06T15:52:17.346Z,12.93
2023-02-06T15:54:58.484Z,15.30
2023-02-06T15:57:39.904Z,12.67
2023-02-06T16:00:23.796Z,9.67
2023-02-06T16:02:54.188Z,12.83
2023-02-06T16:05:36.700Z,14.57
2023-02-06T16:08:06.065Z,16.43
2023-02-06T16:10:39.170Z,12.90
2023-02-06T16:13:15.252Z,15.63
2023-02-06T16:16:18.757Z,12.23
2023-02-06T16:18:48.377Z,16.58
2023-02-06T16:21:17.320Z,12.97
2023-02-06T16:24:03.054Z,14.27
2023-02-06T16:26:49.038Z,17.37
2023-02-06T16:29:29.582Z,17.23
2023-02-06T16:32:23.050Z,14.80
2023-02-06T16:34:52.099Z,17.67
2023-02-06T16:37:32.996Z,14.67
2023-02-06T16:40:01.934Z,10.50
2023-02-06T16:42:35.699Z,11.97
2023-02-06T16:45:19.828Z,16.43
2023-02-06T16:47:48.660Z,17.03
2023-02-06T16:50:18.395Z,14.63
2023-02-06T16:52:52.322Z,14.07
2023-02-06T16:55:23.477Z,13.07
2023-02-06T16:58:01.664Z,12.80
2023-02-06T17:00:31.757Z,14.53
2023-02-06T17:02:59.944Z,14.67
2023-02-06T17:05:28.859Z,13.97
2023-02-06T17:07:56.934Z,14.33
2023-02-06T17:10:26.512Z,13.57
2023-02-06T17:12:54.866Z,15.17
2023-02-06T17:15:23.064Z,12.77
2023-02-06T17:17:54.397Z,15.13
2023-02-06T17:20:34.937Z,21.23
2023-02-06T17:23:07.240Z,17.40
2023-02-06T17:25:37.078Z,16.33
2023-02-06T17:28:07.877Z,20.50
2023-02-06T17:30:37.252Z,16.57
2023-02-06T17:33:06.310Z,18.73
2023-02-06T17:35:39.434Z,19.73
2023-02-06T17:38:09.435Z,24.63
2023-02-06T17:40:41.215Z,20.57
2023-02-06T17:43:12.415Z,22.57
2023-02-06T17:45:41.679Z,21.70
2023-02-06T17:48:09.962Z,22.10
2023-02-06T17:50:46.726Z,18.70
2023-02-06T17:53:21.487Z,23.20
2023-02-06T17:55:49.748Z,23.83
2023-02-06T17:58:21.588Z,23.87
2023-02-06T18:00:50.390Z,22.73
2023-02-06T18:03:20.319Z,23.93
2023-02-06T18:05:57.386Z,22.73
2023-02-06T18:08:28.992Z,21.33
2023-02-06T18:11:03.644Z,21.67
2023-02-06T18:13:32.005Z,25.97
2023-02-06T18:16:00.716Z,22.73
2023-02-06T18:18:30.869Z,25.17
2023-02-06T18:21:02.362Z,25.57
2023-02-06T18:23:31.098Z,21.10
2023-02-06T18:26:04.745Z,23.17
2023-02-06T18:28:34.643Z,23.17
2023-02-06T18:31:05.442Z,24.23
2023-02-06T18:33:36.664Z,22.90
2023-02-06T18:36:06.510Z,21.57
2023-02-06T18:38:38.005Z,18.63
2023-02-06T18:41:07.385Z,22.33
2023-02-06T18:43:36.070Z,20.10
2023-02-06T18:46:07.851Z,18.23
2023-02-06T18:48:36.502Z,17.47
2023-02-06T18:51:07.773Z,17.03
2023-02-06T18:53:39.006Z,15.90
2023-02-06T18:56:10.681Z,16.93
2023-02-06T18:58:38.791Z,15.63
2023-02-06T19:01:16.735Z,16.47
2023-02-06T19:03:45.782Z,12.77
2023-02-06T19:06:18.932Z,16.60
2023-02-06T19:08:49.792Z,17.17
2023-02-06T19:11:21.170Z,16.30
2023-02-06T19:13:49.840Z,16.87
2023-02-06T19:16:22.416Z,18.37
2023-02-06T19:18:52.111Z,16.40
2023-02-06T19:21:23.013Z,14.67
2023-02-06T19:23:58.439Z,18.60
2023-02-06T19:26:29.580Z,14.87
2023-02-06T19:28:59.462Z,15.80
2023-02-06T19:31:27.870Z,17.93
2023-02-06T19:33:59.414Z,12.67
2023-02-06T19:36:29.140Z,18.37
2023-02-06T19:39:03.089Z,20.63
2023-02-06T19:41:33.461Z,15.87
2023-02-06T19:44:04.872Z,18.77
2023-02-06T19:46:33.757Z,16.67
2023-02-06T19:49:06.659Z,18.73
2023-02-06T19:51:39.719Z,16.57
2023-02-06T19:54:08.647Z,15.23
2023-02-06T19:56:42.370Z,18.67
2023-02-06T19:59:18.629Z,20.47
2023-02-06T20:01:53.121Z,16.47
2023-02-06T20:04:24.934Z,17.73
2023-02-06T20:06:56.131Z,16.83
2023-02-06T20:09:24.768Z,24.08
2023-02-06T20:11:54.642Z,18.17
2023-02-06T20:14:23.960Z,15.43
2023-02-06T20:16:52.113Z,17.70
2023-02-06T20:19:25.725Z,16.00
2023-02-06T20:21:56.672Z,19.47
2023-02-06T20:24:27.970Z,20.87
2023-02-06T20:26:59.209Z,16.50
2023-02-06T20:29:30.101Z,17.33
2023-02-06T20:31:59.229Z,19.17
2023-02-06T20:34:28.672Z,18.33
2023-02-06T20:36:57.913Z,22.87
2023-02-06T20:39:27.571Z,18.73
2023-02-06T20:41:56.562Z,19.77
2023-02-06T20:44:26.376Z,18.77
2023-02-06T20:46:57.559Z,21.60
2023-02-06T20:49:28.641Z,23.13
2023-02-06T20:51:57.260Z,24.97
2023-02-06T20:54:26.115Z,22.87
2023-02-06T20:56:54.921Z,24.83
2023-02-06T20:59:23.337Z,21.97
2023-02-06T21:01:54.598Z,24.20
2023-02-06T21:04:22.963Z,23.40
2023-02-06T21:06:51.551Z,24.90
2023-02-06T21:09:21.505Z,24.37
2023-02-06T21:11:50.700Z,25.37
2023-02-06T21:14:19.996Z,23.60
2023-02-06T21:16:49.716Z,22.37
2023-02-06T21:19:21.111Z,21.27
2023-02-06T21:21:50.309Z,20.40
2023-02-06T21:24:18.944Z,22.17
2023-02-06T21:26:48.038Z,22.43
2023-02-06T21:29:16.876Z,22.03
2023-02-06T21:31:46.545Z,23.17
2023-02-06T21:34:17.535Z,19.80
2023-02-06T21:36:46.239Z,15.30
2023-02-06T21:39:21.601Z,15.00
2023-02-06T21:41:54.428Z,14.17
2023-02-06T21:44:27.110Z,14.37
2023-02-06T21:46:56.583Z,14.47
2023-02-06T21:49:24.942Z,17.40
2023-02-06T21:51:53.544Z,10.47
2023-02-06T21:54:22.357Z,8.60
2023-02-06T21:56:52.230Z,7.40
2023-02-06T21:59:20.424Z,12.57
2023-02-06T22:01:48.564Z,7.87
2023-02-06T22:04:17.449Z,7.33
2023-02-06T22:06:47.593Z,7.00
2023-02-06T22:09:21.978Z,11.03
2023-02-06T22:11:50.261Z,10.17
2023-02-06T22:14:18.752Z,10.87
2023-02-06T22:16:49.047Z,12.20
2023-02-06T22:19:17.845Z,12.30
2023-02-06T22:21:49.543Z,10.17
2023-02-06T22:24:18.819Z,9.60
2023-02-06T22:26:47.642Z,10.27
2023-02-06T22:29:17.765Z,8.97
2023-02-06T22:31:46.310Z,8.10
2023-02-06T22:34:19.978Z,9.37
2023-02-06T22:36:51.482Z,9.30
2023-02-06T22:39:20.425Z,8.57
2023-02-06T22:41:50.550Z,9.97
2023-02-06T22:44:20.570Z,12.73
2023-02-06T22:46:53.746Z,13.63
2023-02-06T22:49:25.387Z,8.13
2023-02-06T22:51:54.465Z,8.27
2023-02-06T22:54:22.857Z,10.03
2023-02-06T22:56:51.466Z,8.60
2023-02-06T22:59:23.233Z,12.70
2023-02-06T23:01:56.810Z,11.03
2023-02-06T23:04:31.638Z,12.73
2023-02-06T23:06:59.677Z,12.17
2023-02-06T23:09:36.759Z,10.93
2023-02-06T23:12:11.640Z,10.00
2023-02-06T23:14:40.366Z,9.83
2023-02-06T23:17:11.430Z,10.87
2023-02-06T23:19:40.864Z,13.17
2023-02-06T23:22:11.515Z,9.47
2023-02-06T23:24:43.420Z,11.07
2023-02-06T23:27:12.290Z,10.53
2023-02-06T23:29:40.385Z,13.43
2023-02-06T23:32:08.626Z,18.93
2023-02-06T23:34:40.064Z,14.40
2023-02-06T23:37:08.597Z,16.57
2023-02-06T23:39:37.927Z,14.90
2023-02-06T23:42:08.638Z,14.03
2023-02-06T23:44:38.655Z,11.47
2023-02-06T23:47:06.609Z,15.13
2023-02-06T23:49:35.297Z,16.37
2023-02-06T23:52:03.334Z,12.20
2023-02-06T23:54:31.722Z,15.90
2023-02-06T23:57:00.181Z,13.73
2023-02-06T23:59:28.826Z,12.13
